createdAt,value
2016-05-20T00:00:01.267Z,1008.9
2016-05-20T00:01:01.254Z,1008.92
2016-05-20T00:02:01.241Z,1008.96
2016-05-20T00:03:01.243Z,1008.89
2016-05-20T00:04:01.215Z,1008.95
2016-05-20T00:05:01.201Z,1008.87
2016-05-20T00:06:01.189Z,1008.86
2016-05-20T00:07:01.176Z,1008.84
2016-05-20T00:08:01.164Z,1008.81
2016-05-20T00:09:01.150Z,1008.81
2016-05-20T00:10:01.137Z,1008.87
2016-05-20T00:11:01.125Z,1008.86
2016-05-20T00:12:01.111Z,1008.89
2016-05-20T00:13:01.098Z,1008.9
2016-05-20T00:14:01.085Z,1008.86
2016-05-20T00:15:01.073Z,1008.83
2016-05-20T00:16:01.060Z,1008.84
2016-05-20T00:17:01.047Z,1008.81
2016-05-20T00:18:01.034Z,1008.82
2016-05-20T00:19:01.021Z,1008.8
2016-05-20T00:20:01.008Z,1008.74
2016-05-20T00:21:00.995Z,1008.76
2016-05-20T00:22:00.982Z,1008.77
2016-05-20T00:23:00.969Z,1008.77
2016-05-20T00:24:00.957Z,1008.72
2016-05-20T00:25:00.943Z,1008.76
2016-05-20T00:26:00.930Z,1008.73
2016-05-20T00:27:00.917Z,1008.75
2016-05-20T00:28:00.920Z,1008.8
2016-05-20T00:29:00.891Z,1008.79
2016-05-20T00:30:00.879Z,1008.77
2016-05-20T00:31:00.866Z,1008.74
2016-05-20T00:32:00.853Z,1008.72
2016-05-20T00:33:00.840Z,1008.78
2016-05-20T00:34:00.827Z,1008.74
2016-05-20T00:35:00.815Z,1008.76
2016-05-20T00:36:00.801Z,1008.73
2016-05-20T00:37:00.788Z,1008.69
2016-05-20T00:38:00.775Z,1008.71
2016-05-20T00:39:00.762Z,1008.76
2016-05-20T00:40:00.750Z,1008.72
2016-05-20T00:41:00.736Z,1008.75
2016-05-20T00:42:00.723Z,1008.68
2016-05-20T00:43:00.710Z,1008.66
2016-05-20T00:44:00.697Z,1008.73
2016-05-20T00:45:00.685Z,1008.67
2016-05-20T00:46:00.656Z,1008.64
2016-05-20T00:47:00.643Z,1008.61
2016-05-20T00:48:00.630Z,1008.67
2016-05-20T00:49:00.617Z,1008.67
2016-05-20T00:50:00.620Z,1008.65
2016-05-20T00:51:00.591Z,1008.68
2016-05-20T00:52:00.578Z,1008.72
2016-05-20T00:53:00.566Z,1008.72
2016-05-20T00:54:00.755Z,1008.77
2016-05-20T00:55:00.540Z,1008.76
2016-05-20T00:56:00.527Z,1008.8
2016-05-20T00:57:00.513Z,1008.79
2016-05-20T00:58:00.501Z,1008.76
2016-05-20T00:59:00.488Z,1008.73
2016-05-20T01:00:00.475Z,1008.66
2016-05-20T01:01:00.462Z,1008.64
2016-05-20T01:02:00.449Z,1008.61
2016-05-20T01:03:00.437Z,1008.6
2016-05-20T01:04:00.424Z,1008.59
2016-05-20T01:05:00.410Z,1008.64
2016-05-20T01:06:00.398Z,1008.68
2016-05-20T01:07:00.431Z,1008.66
2016-05-20T01:08:00.371Z,1008.65
2016-05-20T01:09:00.359Z,1008.72
2016-05-20T01:10:00.345Z,1008.7
2016-05-20T01:11:00.333Z,1008.69
2016-05-20T01:12:00.303Z,1008.72
2016-05-20T01:13:00.291Z,1008.72
2016-05-20T01:14:00.279Z,1008.72
2016-05-20T01:15:00.264Z,1008.7
2016-05-20T01:16:00.252Z,1008.73
2016-05-20T01:17:00.239Z,1008.72
2016-05-20T01:18:00.242Z,1008.74
2016-05-20T01:19:00.214Z,1008.72
2016-05-20T01:20:00.200Z,1008.74
2016-05-20T01:21:00.188Z,1008.7
2016-05-20T01:22:00.174Z,1008.66
2016-05-20T01:23:00.161Z,1008.7
2016-05-20T01:24:00.149Z,1008.68
2016-05-20T01:25:00.135Z,1008.68
2016-05-20T01:26:00.123Z,1008.69
2016-05-20T01:27:00.110Z,1008.69
2016-05-20T01:28:00.097Z,1008.65
2016-05-20T01:29:00.085Z,1008.62
2016-05-20T01:30:00.071Z,1008.62
2016-05-20T01:31:00.058Z,1008.61
2016-05-20T01:32:00.046Z,1008.62
2016-05-20T01:33:00.032Z,1008.6
2016-05-20T01:34:00.020Z,1008.61
2016-05-20T01:35:00.007Z,1008.58
2016-05-20T01:35:59.993Z,1008.61
2016-05-20T01:36:59.981Z,1008.6
2016-05-20T01:37:59.952Z,1008.62
2016-05-20T01:39:00.001Z,1008.64
2016-05-20T01:39:59.926Z,1008.64
2016-05-20T01:40:59.913Z,1008.63
2016-05-20T01:41:59.901Z,1008.63
2016-05-20T01:42:59.888Z,1008.65
2016-05-20T01:43:59.874Z,1008.67
2016-05-20T01:44:59.862Z,1008.67
2016-05-20T01:45:59.848Z,1008.65
2016-05-20T01:46:59.836Z,1008.71
2016-05-20T01:47:59.823Z,1008.7
2016-05-20T01:48:59.810Z,1008.69
2016-05-20T01:49:59.797Z,1008.73
2016-05-20T01:50:59.783Z,1008.71
2016-05-20T01:51:59.771Z,1008.7
2016-05-20T01:52:59.758Z,1008.73
2016-05-20T01:53:59.744Z,1008.76
2016-05-20T01:54:59.732Z,1008.8
2016-05-20T01:55:59.719Z,1008.83
2016-05-20T01:56:59.707Z,1008.89
2016-05-20T01:57:59.693Z,1008.92
2016-05-20T01:58:59.665Z,1008.91
2016-05-20T01:59:59.668Z,1008.94
2016-05-20T02:00:59.639Z,1008.97
2016-05-20T02:01:59.626Z,1008.95
2016-05-20T02:02:59.613Z,1008.94
2016-05-20T02:03:59.600Z,1008.97
2016-05-20T02:04:59.587Z,1008.98
2016-05-20T02:05:59.574Z,1009.07
2016-05-20T02:06:59.561Z,1009.09
2016-05-20T02:07:59.548Z,1009.13
2016-05-20T02:08:59.707Z,1009.14
2016-05-20T02:09:59.523Z,1009.12
2016-05-20T02:10:59.510Z,1009.14
2016-05-20T02:11:59.498Z,1009.17
2016-05-20T02:12:59.484Z,1009.19
2016-05-20T02:13:59.471Z,1009.2
2016-05-20T02:14:59.458Z,1009.14
2016-05-20T02:15:59.444Z,1009.14
2016-05-20T02:16:59.432Z,1009.13
2016-05-20T02:17:59.419Z,1009.14
2016-05-20T02:18:59.406Z,1009.14
2016-05-20T02:19:59.394Z,1009.12
2016-05-20T02:20:59.380Z,1009.12
2016-05-20T02:21:59.367Z,1009.13
2016-05-20T02:22:59.354Z,1009.16
2016-05-20T02:23:59.342Z,1009.15
2016-05-20T02:24:59.328Z,1009.17
2016-05-20T02:25:59.300Z,1009.22
2016-05-20T02:26:59.288Z,1009.21
2016-05-20T02:27:59.274Z,1009.21
2016-05-20T02:28:59.261Z,1009.22
2016-05-20T02:29:59.248Z,1009.19
2016-05-20T02:30:59.235Z,1009.19
2016-05-20T02:31:59.222Z,1009.18
2016-05-20T02:32:59.209Z,1009.19
2016-05-20T02:33:59.196Z,1009.17
2016-05-20T02:34:59.183Z,1009.17
2016-05-20T02:35:59.170Z,1009.22
2016-05-20T02:36:59.220Z,1009.23
2016-05-20T02:37:59.145Z,1009.25
2016-05-20T02:38:59.132Z,1009.26
2016-05-20T02:39:59.182Z,1009.22
2016-05-20T02:40:59.106Z,1009.27
2016-05-20T02:41:59.093Z,1009.29
2016-05-20T02:42:59.096Z,1009.25
2016-05-20T02:43:59.129Z,1009.24
2016-05-20T02:44:59.101Z,1009.25
2016-05-20T02:45:59.041Z,1009.24
2016-05-20T02:46:59.028Z,1009.2
2016-05-20T02:47:59.000Z,1009.24
2016-05-20T02:48:58.987Z,1009.22
2016-05-20T02:49:58.974Z,1009.2
2016-05-20T02:50:58.961Z,1009.2
2016-05-20T02:51:58.948Z,1009.22
2016-05-20T02:52:58.936Z,1009.22
2016-05-20T02:53:58.922Z,1009.17
2016-05-20T02:54:58.909Z,1009.21
2016-05-20T02:55:58.897Z,1009.17
2016-05-20T02:56:58.883Z,1009.14
2016-05-20T02:57:58.871Z,1009.1
2016-05-20T02:58:58.857Z,1009.08
2016-05-20T02:59:58.844Z,1009.1
2016-05-20T03:00:58.832Z,1009.12
2016-05-20T03:01:58.819Z,1009.08
2016-05-20T03:02:58.791Z,1009.09
2016-05-20T03:03:58.792Z,1009.06
2016-05-20T03:04:58.780Z,1009.08
2016-05-20T03:05:58.751Z,1009.07
2016-05-20T03:06:58.738Z,1009.1
2016-05-20T03:07:58.726Z,1009.09
2016-05-20T03:08:58.712Z,1009.08
2016-05-20T03:09:58.699Z,1009.07
2016-05-20T03:10:58.687Z,1009.04
2016-05-20T03:11:58.673Z,1009.02
2016-05-20T03:12:58.661Z,1009.01
2016-05-20T03:13:58.647Z,1008.99
2016-05-20T03:14:58.634Z,1009
2016-05-20T03:15:58.623Z,1009.05
2016-05-20T03:16:58.609Z,1009.03
2016-05-20T03:17:58.595Z,1009.02
2016-05-20T03:18:58.584Z,1008.99
2016-05-20T03:19:58.570Z,1008.97
2016-05-20T03:20:58.541Z,1008.95
2016-05-20T03:21:58.528Z,1008.95
2016-05-20T03:22:58.516Z,1008.95
2016-05-20T03:23:58.502Z,1008.97
2016-05-20T03:24:58.489Z,1009.01
2016-05-20T03:25:58.478Z,1009.08
2016-05-20T03:26:58.463Z,1009.1
2016-05-20T03:27:58.451Z,1009.09
2016-05-20T03:28:58.438Z,1009.15
2016-05-20T03:29:58.425Z,1009.16
2016-05-20T03:30:58.413Z,1009.16
2016-05-20T03:31:58.399Z,1009.19
2016-05-20T03:32:58.386Z,1009.23
2016-05-20T03:33:58.373Z,1009.21
2016-05-20T03:34:58.360Z,1009.2
2016-05-20T03:35:58.348Z,1009.21
2016-05-20T03:36:58.318Z,1009.21
2016-05-20T03:37:58.306Z,1009.19
2016-05-20T03:38:58.293Z,1009.19
2016-05-20T03:39:58.280Z,1009.19
2016-05-20T03:40:58.267Z,1009.25
2016-05-20T03:41:58.254Z,1009.19
2016-05-20T03:42:58.257Z,1009.23
2016-05-20T03:43:58.229Z,1009.2
2016-05-20T03:44:58.215Z,1009.21
2016-05-20T03:45:58.203Z,1009.2
2016-05-20T03:46:58.189Z,1009.2
2016-05-20T03:47:58.176Z,1009.24
2016-05-20T03:48:58.163Z,1009.28
2016-05-20T03:49:58.135Z,1009.24
2016-05-20T03:50:58.138Z,1009.25
2016-05-20T03:51:58.109Z,1009.25
2016-05-20T03:52:58.097Z,1009.23
2016-05-20T03:53:58.084Z,1009.27
2016-05-20T03:54:58.070Z,1009.26
2016-05-20T03:55:58.058Z,1009.27
2016-05-20T03:56:58.045Z,1009.25
2016-05-20T03:57:58.032Z,1009.24
2016-05-20T03:58:58.019Z,1009.24
2016-05-20T03:59:58.005Z,1009.22
2016-05-20T04:00:57.993Z,1009.23
2016-05-20T04:01:57.980Z,1009.28
2016-05-20T04:02:57.967Z,1009.27
2016-05-20T04:03:57.954Z,1009.24
2016-05-20T04:04:57.926Z,1009.23
2016-05-20T04:05:57.929Z,1009.2
2016-05-20T04:06:57.900Z,1009.19
2016-05-20T04:07:57.887Z,1009.21
2016-05-20T04:08:57.873Z,1009.15
2016-05-20T04:09:57.877Z,1009.22
2016-05-20T04:10:57.848Z,1009.21
2016-05-20T04:11:57.835Z,1009.17
2016-05-20T04:12:57.822Z,1009.17
2016-05-20T04:13:57.809Z,1009.15
2016-05-20T04:14:57.796Z,1009.17
2016-05-20T04:15:57.784Z,1009.18
2016-05-20T04:16:57.771Z,1009.1
2016-05-20T04:17:57.757Z,1009.07
2016-05-20T04:18:57.745Z,1009.05
2016-05-20T04:19:57.732Z,1009.06
2016-05-20T04:20:57.719Z,1009.12
2016-05-20T04:21:57.706Z,1009.14
2016-05-20T04:22:57.692Z,1009.13
2016-05-20T04:23:57.680Z,1009.1
2016-05-20T04:24:57.667Z,1009.11
2016-05-20T04:25:57.653Z,1009.06
2016-05-20T04:26:57.641Z,1009.06
2016-05-20T04:27:57.627Z,1009.08
2016-05-20T04:28:57.615Z,1009.04
2016-05-20T04:29:57.603Z,1009.07
2016-05-20T04:30:57.589Z,1009.04
2016-05-20T04:31:57.577Z,1009.06
2016-05-20T04:32:57.563Z,1009.02
2016-05-20T04:33:57.550Z,1009.09
2016-05-20T04:34:57.538Z,1009.09
2016-05-20T04:35:57.524Z,1009.08
2016-05-20T04:36:57.512Z,1009.08
2016-05-20T04:37:57.498Z,1009.09
2016-05-20T04:38:57.486Z,1009.08
2016-05-20T04:39:57.474Z,1009.07
2016-05-20T04:40:57.460Z,1009.03
2016-05-20T04:41:57.447Z,1009.05
2016-05-20T04:42:57.434Z,1009.01
2016-05-20T04:43:57.421Z,1008.98
2016-05-20T04:44:57.409Z,1008.98
2016-05-20T04:45:57.395Z,1008.96
2016-05-20T04:46:57.382Z,1008.99
2016-05-20T04:47:57.369Z,1009
2016-05-20T04:48:57.356Z,1009.03
2016-05-20T04:49:57.343Z,1009.03
2016-05-20T04:50:57.330Z,1009
2016-05-20T04:51:57.334Z,1009
2016-05-20T04:52:57.320Z,1009.01
2016-05-20T04:53:57.308Z,1009.03
2016-05-20T04:54:57.654Z,1009.06
2016-05-20T04:55:57.281Z,1009.02
2016-05-20T04:56:57.268Z,1009
2016-05-20T04:57:57.271Z,1009.01
2016-05-20T04:58:57.258Z,1009.06
2016-05-20T04:59:57.245Z,1009.04
2016-05-20T05:00:57.232Z,1009.03
2016-05-20T05:01:57.220Z,1009.04
2016-05-20T05:02:57.206Z,1009.03
2016-05-20T05:03:57.209Z,1009.06
2016-05-20T05:04:57.197Z,1009.04
2016-05-20T05:05:57.183Z,1009.03
2016-05-20T05:06:57.171Z,1009.04
2016-05-20T05:07:57.157Z,1009.01
2016-05-20T05:08:57.160Z,1009.06
2016-05-20T05:09:57.147Z,1009
2016-05-20T05:10:57.134Z,1009
2016-05-20T05:11:57.121Z,1008.99
2016-05-20T05:12:57.108Z,1008.97
2016-05-20T05:13:57.111Z,1009
2016-05-20T05:14:57.098Z,1008.95
2016-05-20T05:15:57.085Z,1008.93
2016-05-20T05:16:57.073Z,1008.95
2016-05-20T05:17:57.059Z,1008.94
2016-05-20T05:18:57.046Z,1008.94
2016-05-20T05:19:57.049Z,1008.97
2016-05-20T05:20:57.037Z,1008.98
2016-05-20T05:21:57.023Z,1008.96
2016-05-20T05:22:57.010Z,1008.97
2016-05-20T05:23:56.998Z,1008.98
2016-05-20T05:24:56.984Z,1009.01
2016-05-20T05:25:56.971Z,1008.99
2016-05-20T05:26:56.974Z,1009.02
2016-05-20T05:27:56.961Z,1009.04
2016-05-20T05:28:56.948Z,1009.05
2016-05-20T05:29:56.936Z,1009.03
2016-05-20T05:30:56.922Z,1009.04
2016-05-20T05:31:56.910Z,1009.02
2016-05-20T05:32:56.897Z,1009
2016-05-20T05:33:56.900Z,1008.99
2016-05-20T05:34:56.886Z,1009.02
2016-05-20T05:35:56.874Z,1009.04
2016-05-20T05:36:56.860Z,1009.02
2016-05-20T05:37:56.847Z,1009.07
2016-05-20T05:38:56.835Z,1009.04
2016-05-20T05:39:56.821Z,1009.05
2016-05-20T05:40:56.810Z,1009.03
2016-05-20T05:41:56.812Z,1009.06
2016-05-20T05:42:56.798Z,1009.08
2016-05-20T05:43:56.786Z,1009.07
2016-05-20T05:44:56.772Z,1009.07
2016-05-20T05:45:56.760Z,1009.07
2016-05-20T05:46:56.746Z,1009.08
2016-05-20T05:47:56.734Z,1009.05
2016-05-20T05:48:56.720Z,1009.06
2016-05-20T05:49:56.724Z,1009.05
2016-05-20T05:50:56.711Z,1009.08
2016-05-20T05:51:56.698Z,1009.1
2016-05-20T05:52:56.684Z,1009.07
2016-05-20T05:53:56.672Z,1009.11
2016-05-20T05:54:57.050Z,1009.12
2016-05-20T05:55:56.661Z,1009.12
2016-05-20T05:56:56.649Z,1009.07
2016-05-20T05:57:56.636Z,1009.11
2016-05-20T05:58:56.636Z,1009.13
2016-05-20T05:59:56.668Z,1009.13
2016-05-20T06:00:56.699Z,1009.16
2016-05-20T06:01:56.731Z,1009.19
2016-05-20T06:02:56.778Z,1009.16
2016-05-20T06:03:56.801Z,1009.17
2016-05-20T06:04:56.788Z,1009.18
2016-05-20T06:05:56.807Z,1009.16
2016-05-20T06:06:56.811Z,1009.18
2016-05-20T06:07:56.814Z,1009.17
2016-05-20T06:08:56.815Z,1009.17
2016-05-20T06:09:56.807Z,1009.17
2016-05-20T06:10:56.815Z,1009.17
2016-05-20T06:11:56.808Z,1009.09
2016-05-20T06:12:56.801Z,1009.14
2016-05-20T06:13:56.792Z,1009.15
2016-05-20T06:14:56.781Z,1009.1
2016-05-20T06:15:56.770Z,1008.98
2016-05-20T06:16:56.775Z,1009.08
2016-05-20T06:17:56.764Z,1009.11
2016-05-20T06:18:56.754Z,1009.1
2016-05-20T06:19:56.740Z,1009.14
2016-05-20T06:20:56.729Z,1009.07
2016-05-20T06:21:56.716Z,1009.09
2016-05-20T06:22:56.705Z,1009.11
2016-05-20T06:23:56.708Z,1009.09
2016-05-20T06:24:56.757Z,1009.1
2016-05-20T06:25:56.683Z,1009.1
2016-05-20T06:26:56.670Z,1009.13
2016-05-20T06:27:56.658Z,1009.13
2016-05-20T06:28:56.661Z,1009.14
2016-05-20T06:29:56.647Z,1009.07
2016-05-20T06:30:56.634Z,1009.03
2016-05-20T06:31:56.622Z,1009.13
2016-05-20T06:32:56.609Z,1009.09
2016-05-20T06:33:56.595Z,1009.08
2016-05-20T06:34:56.598Z,1009.07
2016-05-20T06:35:56.586Z,1009.11
2016-05-20T06:36:56.573Z,1009.06
2016-05-20T06:37:56.560Z,1009.09
2016-05-20T06:38:56.547Z,1009.06
2016-05-20T06:39:56.550Z,1009.12
2016-05-20T06:40:56.536Z,1009.13
2016-05-20T06:41:56.523Z,1009.12
2016-05-20T06:42:56.511Z,1009.13
2016-05-20T06:43:56.513Z,1009.14
2016-05-20T06:44:56.500Z,1009.15
2016-05-20T06:45:56.487Z,1009.09
2016-05-20T06:46:56.474Z,1009.15
2016-05-20T06:47:56.462Z,1009.13
2016-05-20T06:48:56.464Z,1009.18
2016-05-20T06:49:56.451Z,1009.17
2016-05-20T06:50:56.438Z,1009.14
2016-05-20T06:51:56.426Z,1009.14
2016-05-20T06:52:56.412Z,1009.15
2016-05-20T06:53:56.415Z,1009.1
2016-05-20T06:54:56.402Z,1009.11
2016-05-20T06:55:56.390Z,1009.11
2016-05-20T06:56:56.392Z,1009.12
2016-05-20T06:57:56.379Z,1009.09
2016-05-20T06:58:56.367Z,1009.08
2016-05-20T07:00:56.356Z,1008.96
2016-05-20T07:01:56.343Z,1009.03
2016-05-20T07:02:56.330Z,1008.99
2016-05-20T07:03:56.333Z,1009.02
2016-05-20T07:04:56.319Z,1009.06
2016-05-20T07:05:56.306Z,1009.01
2016-05-20T07:06:56.294Z,1009
2016-05-20T07:07:56.297Z,1009.08
2016-05-20T07:08:56.283Z,1009.06
2016-05-20T07:09:56.286Z,1009.09
2016-05-20T07:10:56.274Z,1009.04
2016-05-20T07:11:56.261Z,1009.06
2016-05-20T07:12:56.263Z,1009.05
2016-05-20T07:13:56.250Z,1009.07
2016-05-20T07:14:56.253Z,1009.02
2016-05-20T07:15:56.241Z,1008.92
2016-05-20T07:16:56.243Z,1009.12
2016-05-20T07:17:56.230Z,1009.11
2016-05-20T07:18:56.217Z,1009.11
2016-05-20T07:19:56.204Z,1009.18
2016-05-20T07:20:56.221Z,1009.11
2016-05-20T07:21:56.193Z,1009.15
2016-05-20T07:22:56.196Z,1009.1
2016-05-20T07:23:56.199Z,1009.13
2016-05-20T07:24:56.467Z,1009.16
2016-05-20T07:25:56.173Z,1009.15
2016-05-20T07:26:56.160Z,1009.18
2016-05-20T07:27:56.163Z,1009.21
2016-05-20T07:28:56.150Z,1009.23
2016-05-20T07:29:56.137Z,1009.2
2016-05-20T07:30:56.140Z,1009.13
2016-05-20T07:31:56.127Z,1009.19
2016-05-20T07:32:56.114Z,1009.12
2016-05-20T07:33:56.117Z,1009.16
2016-05-20T07:34:56.104Z,1009.25
2016-05-20T07:35:56.091Z,1009.24
2016-05-20T07:36:56.093Z,1009.29
2016-05-20T07:37:56.080Z,1009.3
2016-05-20T07:38:56.067Z,1009.24
2016-05-20T07:39:56.070Z,1009.25
2016-05-20T07:40:56.057Z,1009.25
2016-05-20T07:41:56.044Z,1009.26
2016-05-20T07:42:56.031Z,1009.26
2016-05-20T07:43:56.034Z,1009.27
2016-05-20T07:44:56.021Z,1009.29
2016-05-20T07:45:56.024Z,1009.25
2016-05-20T07:46:56.011Z,1009.25
2016-05-20T07:47:55.998Z,1009.23
2016-05-20T07:48:55.985Z,1009.24
2016-05-20T07:49:55.988Z,1009.27
2016-05-20T07:50:55.975Z,1009.29
2016-05-20T07:51:55.978Z,1009.28
2016-05-20T07:52:55.964Z,1009.29
2016-05-20T07:53:55.951Z,1009.26
2016-05-20T07:54:56.267Z,1009.27
2016-05-20T07:55:55.941Z,1009.28
2016-05-20T07:56:55.928Z,1009.28
2016-05-20T07:57:55.915Z,1009.29
2016-05-20T07:58:55.903Z,1009.23
2016-05-20T07:59:55.984Z,1009.22
2016-05-20T08:00:55.892Z,1009.28
2016-05-20T08:01:55.879Z,1009.28
2016-05-20T08:02:55.882Z,1009.32
2016-05-20T08:03:55.869Z,1009.32
2016-05-20T08:04:55.856Z,1009.26
2016-05-20T08:05:55.843Z,1009.27
2016-05-20T08:06:55.845Z,1009.29
2016-05-20T08:07:55.833Z,1009.28
2016-05-20T08:08:56.008Z,1009.29
2016-05-20T08:09:55.901Z,1009.31
2016-05-20T08:10:56.013Z,1009.3
2016-05-20T08:11:55.797Z,1009.31
2016-05-20T08:12:55.784Z,1009.3
2016-05-20T08:13:55.786Z,1009.36
2016-05-20T08:14:55.789Z,1009.42
2016-05-20T08:15:55.761Z,1009.38
2016-05-20T08:16:55.764Z,1009.41
2016-05-20T08:17:55.750Z,1009.46
2016-05-20T08:18:55.738Z,1009.41
2016-05-20T08:19:56.443Z,1009.4
2016-05-20T08:20:58.102Z,1009.43
2016-05-20T08:21:55.715Z,1009.4
2016-05-20T08:22:56.826Z,1009.42
2016-05-20T08:23:55.704Z,1009.38
2016-05-20T08:24:55.691Z,1009.39
2016-05-20T08:25:55.679Z,1009.41
2016-05-20T08:26:55.665Z,1009.35
2016-05-20T08:27:55.668Z,1009.38
2016-05-20T08:28:55.654Z,1009.44
2016-05-20T08:29:55.642Z,1009.39
2016-05-20T08:30:55.629Z,1009.36
2016-05-20T08:31:55.631Z,1009.38
2016-05-20T08:32:55.620Z,1009.42
2016-05-20T08:33:55.606Z,1009.41
2016-05-20T08:34:57.718Z,1009.41
2016-05-20T08:35:55.595Z,1009.35
2016-05-20T08:36:55.583Z,1009.35
2016-05-20T08:37:55.570Z,1009.42
2016-05-20T08:38:55.572Z,1009.42
2016-05-20T08:39:55.575Z,1009.39
2016-05-20T08:40:55.547Z,1009.36
2016-05-20T08:41:55.550Z,1009.39
2016-05-20T08:42:55.537Z,1009.39
2016-05-20T08:43:55.524Z,1009.31
2016-05-20T08:44:55.510Z,1009.37
2016-05-20T08:45:55.935Z,1009.33
2016-05-20T08:46:55.500Z,1009.26
2016-05-20T08:47:55.503Z,1009.34
2016-05-20T08:48:55.491Z,1009.3
2016-05-20T08:49:55.477Z,1009.21
2016-05-20T08:50:55.480Z,1009.26
2016-05-20T08:51:55.467Z,1009.33
2016-05-20T08:52:55.454Z,1009.35
2016-05-20T08:53:55.457Z,1009.38
2016-05-20T08:54:55.443Z,1009.31
2016-05-20T08:55:55.432Z,1009.32
2016-05-20T08:56:55.434Z,1009.3
2016-05-20T08:57:55.420Z,1009.34
2016-05-20T08:58:55.408Z,1009.35
2016-05-20T08:59:55.410Z,1009.32
2016-05-20T09:00:55.398Z,1009.39
2016-05-20T09:01:55.431Z,1009.34
2016-05-20T09:02:55.387Z,1009.31
2016-05-20T09:03:55.390Z,1009.33
2016-05-20T09:04:55.377Z,1009.3
2016-05-20T09:05:55.364Z,1009.22
2016-05-20T09:06:55.366Z,1009.28
2016-05-20T09:07:55.354Z,1009.29
2016-05-20T09:08:55.341Z,1009.27
2016-05-20T09:09:55.344Z,1009.23
2016-05-20T09:10:55.331Z,1009.2
2016-05-20T09:11:55.333Z,1009.3
2016-05-20T09:12:55.320Z,1009.23
2016-05-20T09:13:55.323Z,1009.2
2016-05-20T09:14:55.310Z,1009.21
2016-05-20T09:15:55.297Z,1009.15
2016-05-20T09:16:55.300Z,1009.23
2016-05-20T09:17:55.303Z,1009.21
2016-05-20T09:18:55.290Z,1009.18
2016-05-20T09:19:55.277Z,1009.21
2016-05-20T09:20:55.280Z,1009.27
2016-05-20T09:21:55.297Z,1009.21
2016-05-20T09:22:55.285Z,1009.17
2016-05-20T09:23:55.272Z,1009.15
2016-05-20T09:24:55.274Z,1009.2
2016-05-20T09:25:55.262Z,1009.19
2016-05-20T09:26:55.264Z,1009.23
2016-05-20T09:27:55.252Z,1009.18
2016-05-20T09:28:55.254Z,1009.19
2016-05-20T09:29:55.241Z,1009.16
2016-05-20T09:30:55.260Z,1009.06
2016-05-20T09:31:55.246Z,1009.21
2016-05-20T09:32:55.265Z,1009.12
2016-05-20T09:33:55.252Z,1009.19
2016-05-20T09:34:55.239Z,1009.21
2016-05-20T09:35:55.242Z,1009.19
2016-05-20T09:36:55.244Z,1009.28
2016-05-20T09:37:55.247Z,1009.29
2016-05-20T09:38:55.234Z,1009.28
2016-05-20T09:39:55.236Z,1009.27
2016-05-20T09:40:55.239Z,1009.15
2016-05-20T09:41:55.242Z,1009.2
2016-05-20T09:42:55.245Z,1009.17
2016-05-20T09:43:55.232Z,1009.26
2016-05-20T09:44:55.234Z,1009.34
2016-05-20T09:45:55.237Z,1009.17
2016-05-20T09:46:55.239Z,1009.29
2016-05-20T09:47:55.242Z,1009.35
2016-05-20T09:48:55.230Z,1009.3
2016-05-20T09:49:55.233Z,1009.26
2016-05-20T09:50:55.250Z,1009.26
2016-05-20T09:51:55.238Z,1009.4
2016-05-20T09:52:55.241Z,1009.28
2016-05-20T09:53:55.243Z,1009.28
2016-05-20T09:54:55.230Z,1009.18
2016-05-20T09:55:55.232Z,1009.38
2016-05-20T09:56:55.236Z,1009.34
2016-05-20T09:57:55.238Z,1009.27
2016-05-20T09:58:55.240Z,1009.2
2016-05-20T09:59:55.228Z,1009.32
2016-05-20T10:00:55.231Z,1009.37
2016-05-20T10:01:55.218Z,1009.3
2016-05-20T10:02:55.221Z,1009.29
2016-05-20T10:03:55.223Z,1009.35
2016-05-20T10:04:55.226Z,1009.32
2016-05-20T10:05:55.213Z,1009.35
2016-05-20T10:06:55.216Z,1009.35
2016-05-20T10:07:55.218Z,1009.32
2016-05-20T10:08:55.206Z,1009.38
2016-05-20T10:09:55.208Z,1009.32
2016-05-20T10:10:55.211Z,1009.33
2016-05-20T10:11:55.214Z,1009.38
2016-05-20T10:12:55.200Z,1009.34
2016-05-20T10:13:55.203Z,1009.31
2016-05-20T10:14:55.222Z,1009.26
2016-05-20T10:15:55.192Z,1009.33
2016-05-20T10:16:55.195Z,1009.28
2016-05-20T10:17:55.198Z,1009.35
2016-05-20T10:18:55.185Z,1009.29
2016-05-20T10:19:55.188Z,1009.29
2016-05-20T10:20:55.206Z,1009.38
2016-05-20T10:21:55.177Z,1009.34
2016-05-20T10:22:55.180Z,1009.39
2016-05-20T10:23:55.183Z,1009.33
2016-05-20T10:24:55.217Z,1009.28
2016-05-20T10:25:55.173Z,1009.36
2016-05-20T10:26:55.176Z,1009.35
2016-05-20T10:27:55.162Z,1009.38
2016-05-20T10:28:55.165Z,1009.36
2016-05-20T10:29:55.184Z,1009.35
2016-05-20T10:30:55.155Z,1009.31
2016-05-20T10:31:55.173Z,1009.31
2016-05-20T10:32:55.160Z,1009.32
2016-05-20T10:33:55.148Z,1009.38
2016-05-20T10:34:55.182Z,1009.29
2016-05-20T10:35:55.153Z,1009.36
2016-05-20T10:36:55.140Z,1009.34
2016-05-20T10:37:55.252Z,1009.31
2016-05-20T10:38:55.129Z,1009.34
2016-05-20T10:39:55.132Z,1009.32
2016-05-20T10:40:55.135Z,1009.39
2016-05-20T10:41:55.137Z,1009.41
2016-05-20T10:42:55.126Z,1009.33
2016-05-20T10:43:55.127Z,1009.37
2016-05-20T10:44:55.115Z,1009.4
2016-05-20T10:45:55.118Z,1009.39
2016-05-20T10:46:55.105Z,1009.33
2016-05-20T10:47:55.108Z,1009.39
2016-05-20T10:48:55.111Z,1009.38
2016-05-20T10:49:55.097Z,1009.42
2016-05-20T10:50:55.099Z,1009.41
2016-05-20T10:51:55.197Z,1009.49
2016-05-20T10:52:55.089Z,1009.36
2016-05-20T10:53:55.092Z,1009.45
2016-05-20T10:54:55.141Z,1009.4
2016-05-20T10:55:55.082Z,1009.47
2016-05-20T10:56:55.085Z,1009.46
2016-05-20T10:57:55.088Z,1009.53
2016-05-20T10:58:55.075Z,1009.49
2016-05-20T10:59:55.060Z,1009.44
2016-05-20T11:00:55.063Z,1009.44
2016-05-20T11:01:55.066Z,1009.49
2016-05-20T11:02:55.116Z,1009.46
2016-05-20T11:03:55.057Z,1009.46
2016-05-20T11:04:55.074Z,1009.5
2016-05-20T11:05:55.046Z,1009.45
2016-05-20T11:06:55.034Z,1009.55
2016-05-20T11:07:55.067Z,1009.53
2016-05-20T11:08:55.023Z,1009.52
2016-05-20T11:09:55.026Z,1009.44
2016-05-20T11:10:55.029Z,1009.47
2016-05-20T11:11:55.016Z,1009.42
2016-05-20T11:12:55.018Z,1009.44
2016-05-20T11:13:55.005Z,1009.46
2016-05-20T11:14:55.008Z,1009.45
2016-05-20T11:15:54.995Z,1009.52
2016-05-20T11:16:54.998Z,1009.53
2016-05-20T11:17:55.000Z,1009.39
2016-05-20T11:18:54.987Z,1009.52
2016-05-20T11:19:55.022Z,1009.53
2016-05-20T11:20:54.992Z,1009.48
2016-05-20T11:21:54.980Z,1009.49
2016-05-20T11:22:54.982Z,1009.53
2016-05-20T11:23:54.985Z,1009.5
2016-05-20T11:24:54.972Z,1009.45
2016-05-20T11:25:54.975Z,1009.5
2016-05-20T11:26:54.977Z,1009.52
2016-05-20T11:27:54.980Z,1009.5
2016-05-20T11:28:54.983Z,1009.51
2016-05-20T11:29:55.033Z,1009.48
2016-05-20T11:30:54.958Z,1009.52
2016-05-20T11:31:54.960Z,1009.42
2016-05-20T11:32:54.963Z,1009.51
2016-05-20T11:33:54.965Z,1009.49
2016-05-20T11:34:54.968Z,1009.5
2016-05-20T11:35:54.955Z,1009.46
2016-05-20T11:36:54.957Z,1009.46
2016-05-20T11:37:54.945Z,1009.51
2016-05-20T11:38:54.947Z,1009.54
2016-05-20T11:39:54.950Z,1009.57
2016-05-20T11:40:54.953Z,1009.51
2016-05-20T11:41:54.940Z,1009.51
2016-05-20T11:42:54.942Z,1009.57
2016-05-20T11:43:54.946Z,1009.54
2016-05-20T11:44:54.932Z,1009.59
2016-05-20T11:45:54.934Z,1009.61
2016-05-20T11:46:54.937Z,1009.58
2016-05-20T11:47:54.940Z,1009.51
2016-05-20T11:48:54.928Z,1009.52
2016-05-20T11:49:54.930Z,1009.52
2016-05-20T11:50:54.918Z,1009.52
2016-05-20T11:51:54.919Z,1009.56
2016-05-20T11:52:54.922Z,1009.58
2016-05-20T11:53:54.910Z,1009.51
2016-05-20T11:54:55.006Z,1009.59
2016-05-20T11:55:54.916Z,1009.61
2016-05-20T11:56:54.902Z,1009.6
2016-05-20T11:57:54.905Z,1009.61
2016-05-20T11:58:54.908Z,1009.57
2016-05-20T11:59:54.894Z,1009.59
2016-05-20T12:00:54.897Z,1009.61
2016-05-20T12:01:54.885Z,1009.56
2016-05-20T12:02:54.887Z,1009.62
2016-05-20T12:03:54.890Z,1009.59
2016-05-20T12:04:54.877Z,1009.58
2016-05-20T12:05:54.895Z,1009.57
2016-05-20T12:06:54.882Z,1009.49
2016-05-20T12:07:54.884Z,1009.56
2016-05-20T12:08:54.872Z,1009.52